Jack Holland — WDF3615 — position and weather

sailwx.info

Track history (hours):
 
Tides and Currents Weather Stations Pressure Air Temp Water Temp Dewpoint Dewpoint Depression Visibility Wind Speed Wind Dir Waves Ship Positions

Jack Holland

Owner: Norfolk Tug Company, Norfolk, VA. More information available from US FCC via Universal Licensing System and Coast Guard Vessel Documentation Center.

Last reported at 2016-Sep-29 08:34 UTC. Time now 2016-Sep-29 13:37 UTC.
Position N 36°50' W 076°16'.

Length 22 m; draft 2.5 m.

Type: Tug. MMSI: 367442020.

Date/timePositionNaut miles runAvg speedWind from/ knotsBaromVisibWave heightAir tempDewpointWater temp
2016-Sep-29 08:34N 36°50' W 076°16'0 0.0
2016-Sep-29 07:34N 36°50' W 076°16'0 0.0
2016-Sep-29 00:34N 36°50' W 076°16'0 0.0
2016-Sep-28 21:33N 36°50' W 076°16'0 0.0
2016-Sep-28 19:33N 36°50' W 076°16'0 0.0
2016-Sep-28 16:33N 36°50' W 076°16'0 0.0
2016-Sep-28 15:33N 36°50' W 076°16'6 2.1
2016-Sep-28 12:33N 36°56' W 076°20'10 2.4
2016-Sep-28 08:33N 36°46' W 076°18'0 0.0
2016-Sep-26 20:33N 36°46' W 076°18'4 4.4
2016-Sep-26 19:33N 36°50' W 076°16'0 0.0
2016-Sep-26 15:33N 36°50' W 076°16'0 0.2
2016-Sep-26 13:33N 36°50' W 076°17'6 2.8
2016-Sep-26 11:17N 36°56' W 076°20'7 0.6
2016-Sep-26 00:28N 36°50' W 076°16'2 0.1
2016-Sep-24 22:33N 36°51' W 076°18'2 1.8
2016-Sep-24 21:33N 36°49' W 076°17'2 1.1
2016-Sep-24 19:33N 36°51' W 076°19'  
Track history (hours):
 
Tides and Currents Weather Stations Pressure Air Temp Water Temp Dewpoint Dewpoint Depression Visibility Wind Speed Wind Dir Waves Ship Positions

Jack Holland

Owner: Norfolk Tug Company, Norfolk, VA. More information available from US FCC via Universal Licensing System and Coast Guard Vessel Documentation Center.

Last reported at 2016-Sep-29 08:34 UTC. Time now 2016-Sep-29 13:37 UTC.
Position N 36°50' W 076°16'.

Length 22 m; draft 2.5 m.

Type: Tug. MMSI: 367442020.

Date/timePositionNaut miles runAvg speedWind from/ knotsBaromVisibWave heightAir tempDewpointWater temp
2016-Sep-29 08:34N 36°50' W 076°16'0 0.0
2016-Sep-29 07:34N 36°50' W 076°16'0 0.0
2016-Sep-29 00:34N 36°50' W 076°16'0 0.0
2016-Sep-28 21:33N 36°50' W 076°16'0 0.0
2016-Sep-28 19:33N 36°50' W 076°16'0 0.0
2016-Sep-28 16:33N 36°50' W 076°16'0 0.0
2016-Sep-28 15:33N 36°50' W 076°16'6 2.1
2016-Sep-28 12:33N 36°56' W 076°20'10 2.4
2016-Sep-28 08:33N 36°46' W 076°18'0 0.0
2016-Sep-26 20:33N 36°46' W 076°18'4 4.4
2016-Sep-26 19:33N 36°50' W 076°16'0 0.0
2016-Sep-26 15:33N 36°50' W 076°16'0 0.2
2016-Sep-26 13:33N 36°50' W 076°17'6 2.8
2016-Sep-26 11:17N 36°56' W 076°20'7 0.6
2016-Sep-26 00:28N 36°50' W 076°16'2 0.1
2016-Sep-24 22:33N 36°51' W 076°18'2 1.8
2016-Sep-24 21:33N 36°49' W 076°17'2 1.1
2016-Sep-24 19:33N 36°51' W 076°19'  

Dump ship's entire track history